sensor_id;sensor_type;location;lat;lon;timestamp;P1;durP1;ratioP1;P2;durP2;ratioP2
4603;SDS011;2314;48.272;11.562;2024-03-08T00:02:24;26.30;;;13.20;;
4603;SDS011;2314;48.272;11.562;2024-03-08T00:04:52;28.43;;;14.27;;
4603;SDS011;2314;48.272;11.562;2024-03-08T00:07:19;27.77;;;13.33;;
4603;SDS011;2314;48.272;11.562;2024-03-08T00:09:46;26.17;;;14.67;;
4603;SDS011;2314;48.272;11.562;2024-03-08T00:12:14;28.80;;;13.70;;
4603;SDS011;2314;48.272;11.562;2024-03-08T00:14:41;28.00;;;14.13;;
4603;SDS011;2314;48.272;11.562;2024-03-08T00:17:09;26.03;;;11.73;;
4603;SDS011;2314;48.272;11.562;2024-03-08T00:19:36;27.87;;;13.27;;
4603;SDS011;2314;48.272;11.562;2024-03-08T00:22:05;30.37;;;13.10;;
4603;SDS011;2314;48.272;11.562;2024-03-08T00:24:33;28.40;;;14.43;;
4603;SDS011;2314;48.272;11.562;2024-03-08T00:27:00;27.90;;;13.10;;
4603;SDS011;2314;48.272;11.562;2024-03-08T00:29:27;28.13;;;13.60;;
4603;SDS011;2314;48.272;11.562;2024-03-08T00:31:54;29.70;;;13.93;;
4603;SDS011;2314;48.272;11.562;2024-03-08T00:34:21;27.33;;;14.20;;
4603;SDS011;2314;48.272;11.562;2024-03-08T00:36:48;25.00;;;12.67;;
4603;SDS011;2314;48.272;11.562;2024-03-08T00:39:18;26.90;;;13.00;;
4603;SDS011;2314;48.272;11.562;2024-03-08T00:41:46;29.77;;;14.53;;
4603;SDS011;2314;48.272;11.562;2024-03-08T00:44:13;27.20;;;12.70;;
4603;SDS011;2314;48.272;11.562;2024-03-08T00:46:40;23.97;;;12.33;;
4603;SDS011;2314;48.272;11.562;2024-03-08T00:49:08;27.83;;;13.47;;
4603;SDS011;2314;48.272;11.562;2024-03-08T00:51:35;26.20;;;13.00;;
4603;SDS011;2314;48.272;11.562;2024-03-08T00:54:02;24.70;;;12.10;;
4603;SDS011;2314;48.272;11.562;2024-03-08T00:56:31;27.27;;;13.47;;
4603;SDS011;2314;48.272;11.562;2024-03-08T00:58:59;28.37;;;13.13;;
4603;SDS011;2314;48.272;11.562;2024-03-08T01:01:27;27.60;;;14.03;;
4603;SDS011;2314;48.272;11.562;2024-03-08T01:03:54;27.53;;;13.80;;
4603;SDS011;2314;48.272;11.562;2024-03-08T01:06:22;25.67;;;14.20;;
4603;SDS011;2314;48.272;11.562;2024-03-08T01:08:49;29.87;;;13.57;;
4603;SDS011;2314;48.272;11.562;2024-03-08T01:11:17;27.90;;;12.80;;
4603;SDS011;2314;48.272;11.562;2024-03-08T01:13:45;34.30;;;14.30;;
4603;SDS011;2314;48.272;11.562;2024-03-08T01:16:14;28.30;;;14.50;;
4603;SDS011;2314;48.272;11.562;2024-03-08T01:18:43;28.30;;;13.70;;
4603;SDS011;2314;48.272;11.562;2024-03-08T01:21:10;32.87;;;14.83;;
4603;SDS011;2314;48.272;11.562;2024-03-08T01:23:38;27.20;;;12.90;;
4603;SDS011;2314;48.272;11.562;2024-03-08T01:26:05;24.00;;;12.30;;
4603;SDS011;2314;48.272;11.562;2024-03-08T01:28:32;26.20;;;13.83;;
4603;SDS011;2314;48.272;11.562;2024-03-08T01:31:01;26.87;;;12.97;;
4603;SDS011;2314;48.272;11.562;2024-03-08T01:33:28;30.83;;;13.17;;
4603;SDS011;2314;48.272;11.562;2024-03-08T01:35:57;26.70;;;14.67;;
4603;SDS011;2314;48.272;11.562;2024-03-08T01:38:24;26.67;;;13.23;;
4603;SDS011;2314;48.272;11.562;2024-03-08T01:40:51;31.37;;;15.63;;
4603;SDS011;2314;48.272;11.562;2024-03-08T01:43:19;27.10;;;14.00;;
4603;SDS011;2314;48.272;11.562;2024-03-08T01:45:46;29.03;;;14.20;;
4603;SDS011;2314;48.272;11.562;2024-03-08T01:48:15;30.13;;;14.33;;
4603;SDS011;2314;48.272;11.562;2024-03-08T01:50:44;27.50;;;14.47;;
4603;SDS011;2314;48.272;11.562;2024-03-08T01:53:12;31.17;;;14.03;;
4603;SDS011;2314;48.272;11.562;2024-03-08T01:55:40;29.70;;;13.27;;
4603;SDS011;2314;48.272;11.562;2024-03-08T01:58:09;29.37;;;14.57;;
4603;SDS011;2314;48.272;11.562;2024-03-08T02:00:37;24.90;;;12.90;;
4603;SDS011;2314;48.272;11.562;2024-03-08T02:03:06;30.10;;;15.23;;
4603;SDS011;2314;48.272;11.562;2024-03-08T02:05:35;28.57;;;14.00;;
4603;SDS011;2314;48.272;11.562;2024-03-08T02:08:03;28.23;;;14.67;;
4603;SDS011;2314;48.272;11.562;2024-03-08T02:10:32;28.67;;;14.63;;
4603;SDS011;2314;48.272;11.562;2024-03-08T02:12:59;29.63;;;14.33;;
4603;SDS011;2314;48.272;11.562;2024-03-08T02:18:16;32.60;;;14.13;;
4603;SDS011;2314;48.272;11.562;2024-03-08T02:20:44;35.03;;;15.43;;
4603;SDS011;2314;48.272;11.562;2024-03-08T02:23:12;27.30;;;14.90;;
4603;SDS011;2314;48.272;11.562;2024-03-08T02:25:40;33.90;;;16.40;;
4603;SDS011;2314;48.272;11.562;2024-03-08T02:28:08;26.43;;;14.50;;
4603;SDS011;2314;48.272;11.562;2024-03-08T02:30:36;30.83;;;15.37;;
4603;SDS011;2314;48.272;11.562;2024-03-08T02:33:03;38.97;;;15.63;;
4603;SDS011;2314;48.272;11.562;2024-03-08T02:35:31;31.03;;;15.47;;
4603;SDS011;2314;48.272;11.562;2024-03-08T02:37:59;29.93;;;14.97;;
4603;SDS011;2314;48.272;11.562;2024-03-08T02:40:26;31.10;;;14.67;;
4603;SDS011;2314;48.272;11.562;2024-03-08T02:42:54;31.80;;;15.70;;
4603;SDS011;2314;48.272;11.562;2024-03-08T02:45:21;36.67;;;16.07;;
4603;SDS011;2314;48.272;11.562;2024-03-08T02:47:48;31.10;;;14.93;;
4603;SDS011;2314;48.272;11.562;2024-03-08T02:50:15;32.83;;;16.37;;
4603;SDS011;2314;48.272;11.562;2024-03-08T02:52:42;38.03;;;17.60;;
4603;SDS011;2314;48.272;11.562;2024-03-08T02:55:12;31.80;;;16.07;;
4603;SDS011;2314;48.272;11.562;2024-03-08T02:57:41;30.73;;;15.00;;
4603;SDS011;2314;48.272;11.562;2024-03-08T03:00:09;33.27;;;14.57;;
4603;SDS011;2314;48.272;11.562;2024-03-08T03:02:38;34.43;;;16.63;;
4603;SDS011;2314;48.272;11.562;2024-03-08T03:05:05;28.50;;;15.27;;
4603;SDS011;2314;48.272;11.562;2024-03-08T03:07:34;32.97;;;16.17;;
4603;SDS011;2314;48.272;11.562;2024-03-08T03:10:02;35.87;;;15.50;;
4603;SDS011;2314;48.272;11.562;2024-03-08T03:12:33;33.70;;;15.60;;
4603;SDS011;2314;48.272;11.562;2024-03-08T03:15:00;34.53;;;17.20;;
4603;SDS011;2314;48.272;11.562;2024-03-08T03:17:27;33.77;;;15.23;;
4603;SDS011;2314;48.272;11.562;2024-03-08T03:19:54;37.67;;;16.23;;
4603;SDS011;2314;48.272;11.562;2024-03-08T03:22:21;33.40;;;16.23;;
4603;SDS011;2314;48.272;11.562;2024-03-08T03:24:50;31.90;;;16.93;;
4603;SDS011;2314;48.272;11.562;2024-03-08T03:27:18;36.47;;;16.77;;
4603;SDS011;2314;48.272;11.562;2024-03-08T03:29:46;37.90;;;17.37;;
4603;SDS011;2314;48.272;11.562;2024-03-08T03:32:14;37.17;;;17.73;;
4603;SDS011;2314;48.272;11.562;2024-03-08T03:34:43;35.97;;;16.67;;
4603;SDS011;2314;48.272;11.562;2024-03-08T03:37:10;39.07;;;17.93;;
4603;SDS011;2314;48.272;11.562;2024-03-08T03:39:38;32.03;;;16.20;;
4603;SDS011;2314;48.272;11.562;2024-03-08T03:42:13;41.33;;;17.27;;
4603;SDS011;2314;48.272;11.562;2024-03-08T03:44:41;39.47;;;17.67;;
4603;SDS011;2314;48.272;11.562;2024-03-08T03:47:11;42.10;;;20.00;;
4603;SDS011;2314;48.272;11.562;2024-03-08T03:49:39;41.07;;;18.80;;
4603;SDS011;2314;48.272;11.562;2024-03-08T03:52:16;46.53;;;18.97;;
4603;SDS011;2314;48.272;11.562;2024-03-08T03:54:43;42.40;;;21.00;;
4603;SDS011;2314;48.272;11.562;2024-03-08T03:57:10;43.30;;;20.57;;
4603;SDS011;2314;48.272;11.562;2024-03-08T03:59:37;39.17;;;20.33;;
4603;SDS011;2314;48.272;11.562;2024-03-08T04:02:05;51.10;;;21.40;;
4603;SDS011;2314;48.272;11.562;2024-03-08T04:04:33;46.37;;;19.77;;
4603;SDS011;2314;48.272;11.562;2024-03-08T04:07:00;38.07;;;18.27;;
4603;SDS011;2314;48.272;11.562;2024-03-08T04:09:27;46.40;;;21.33;;
4603;SDS011;2314;48.272;11.562;2024-03-08T04:11:54;42.00;;;20.63;;
4603;SDS011;2314;48.272;11.562;2024-03-08T04:14:21;41.40;;;19.10;;
4603;SDS011;2314;48.272;11.562;2024-03-08T04:16:49;46.93;;;22.30;;
4603;SDS011;2314;48.272;11.562;2024-03-08T04:19:16;45.67;;;20.57;;
4603;SDS011;2314;48.272;11.562;2024-03-08T04:21:45;44.47;;;18.97;;
4603;SDS011;2314;48.272;11.562;2024-03-08T04:24:12;43.07;;;19.90;;
4603;SDS011;2314;48.272;11.562;2024-03-08T04:26:40;52.47;;;21.20;;
4603;SDS011;2314;48.272;11.562;2024-03-08T04:29:07;41.17;;;19.43;;
4603;SDS011;2314;48.272;11.562;2024-03-08T04:31:34;42.80;;;18.97;;
4603;SDS011;2314;48.272;11.562;2024-03-08T04:34:03;52.40;;;21.07;;
4603;SDS011;2314;48.272;11.562;2024-03-08T04:36:30;37.80;;;19.73;;
4603;SDS011;2314;48.272;11.562;2024-03-08T04:39:00;45.93;;;19.90;;
4603;SDS011;2314;48.272;11.562;2024-03-08T04:41:28;42.67;;;18.90;;
4603;SDS011;2314;48.272;11.562;2024-03-08T04:43:56;44.07;;;20.17;;
4603;SDS011;2314;48.272;11.562;2024-03-08T04:46:23;44.03;;;20.07;;
4603;SDS011;2314;48.272;11.562;2024-03-08T04:48:50;43.90;;;22.43;;
4603;SDS011;2314;48.272;11.562;2024-03-08T04:51:17;45.27;;;19.33;;
4603;SDS011;2314;48.272;11.562;2024-03-08T04:53:44;43.90;;;18.93;;
4603;SDS011;2314;48.272;11.562;2024-03-08T04:56:12;52.10;;;22.73;;
4603;SDS011;2314;48.272;11.562;2024-03-08T04:58:39;44.07;;;19.23;;
4603;SDS011;2314;48.272;11.562;2024-03-08T05:01:06;45.67;;;21.57;;
4603;SDS011;2314;48.272;11.562;2024-03-08T05:03:36;44.20;;;20.63;;
4603;SDS011;2314;48.272;11.562;2024-03-08T05:06:03;46.10;;;19.73;;
4603;SDS011;2314;48.272;11.562;2024-03-08T05:08:30;46.20;;;20.23;;
4603;SDS011;2314;48.272;11.562;2024-03-08T05:10:58;54.80;;;21.50;;
4603;SDS011;2314;48.272;11.562;2024-03-08T05:13:30;47.20;;;22.27;;
4603;SDS011;2314;48.272;11.562;2024-03-08T05:15:58;57.73;;;23.07;;
4603;SDS011;2314;48.272;11.562;2024-03-08T05:18:25;39.37;;;17.80;;
4603;SDS011;2314;48.272;11.562;2024-03-08T05:20:53;47.27;;;21.37;;
4603;SDS011;2314;48.272;11.562;2024-03-08T05:23:20;45.13;;;21.50;;
4603;SDS011;2314;48.272;11.562;2024-03-08T05:25:47;44.93;;;19.67;;
4603;SDS011;2314;48.272;11.562;2024-03-08T05:28:14;42.93;;;21.20;;
4603;SDS011;2314;48.272;11.562;2024-03-08T05:30:42;48.73;;;20.10;;
4603;SDS011;2314;48.272;11.562;2024-03-08T05:33:10;42.53;;;20.10;;
4603;SDS011;2314;48.272;11.562;2024-03-08T05:35:39;47.33;;;21.47;;
4603;SDS011;2314;48.272;11.562;2024-03-08T05:38:06;45.07;;;20.07;;
4603;SDS011;2314;48.272;11.562;2024-03-08T05:40:33;46.00;;;19.63;;
4603;SDS011;2314;48.272;11.562;2024-03-08T05:43:00;44.20;;;20.00;;
4603;SDS011;2314;48.272;11.562;2024-03-08T05:45:27;43.77;;;18.90;;
4603;SDS011;2314;48.272;11.562;2024-03-08T05:47:56;47.00;;;21.10;;
4603;SDS011;2314;48.272;11.562;2024-03-08T05:50:23;46.83;;;21.37;;
4603;SDS011;2314;48.272;11.562;2024-03-08T05:52:50;49.17;;;23.03;;
4603;SDS011;2314;48.272;11.562;2024-03-08T05:55:17;48.90;;;21.30;;
4603;SDS011;2314;48.272;11.562;2024-03-08T05:57:44;47.37;;;21.47;;
4603;SDS011;2314;48.272;11.562;2024-03-08T06:00:11;52.50;;;22.20;;
4603;SDS011;2314;48.272;11.562;2024-03-08T06:02:40;46.47;;;21.27;;
4603;SDS011;2314;48.272;11.562;2024-03-08T06:05:10;48.33;;;22.50;;
4603;SDS011;2314;48.272;11.562;2024-03-08T06:07:37;53.13;;;22.37;;
4603;SDS011;2314;48.272;11.562;2024-03-08T06:10:06;56.47;;;22.30;;
4603;SDS011;2314;48.272;11.562;2024-03-08T06:12:36;49.10;;;21.97;;
4603;SDS011;2314;48.272;11.562;2024-03-08T06:15:05;58.70;;;23.33;;
4603;SDS011;2314;48.272;11.562;2024-03-08T06:17:33;59.60;;;22.67;;
4603;SDS011;2314;48.272;11.562;2024-03-08T06:20:00;51.30;;;23.70;;
4603;SDS011;2314;48.272;11.562;2024-03-08T06:22:30;49.93;;;20.97;;
4603;SDS011;2314;48.272;11.562;2024-03-08T06:24:57;47.10;;;22.20;;
4603;SDS011;2314;48.272;11.562;2024-03-08T06:27:24;47.20;;;21.60;;
4603;SDS011;2314;48.272;11.562;2024-03-08T06:29:50;51.70;;;23.50;;
4603;SDS011;2314;48.272;11.562;2024-03-08T06:32:18;57.30;;;24.73;;
4603;SDS011;2314;48.272;11.562;2024-03-08T06:34:45;51.90;;;22.03;;
4603;SDS011;2314;48.272;11.562;2024-03-08T06:37:12;54.30;;;22.33;;
4603;SDS011;2314;48.272;11.562;2024-03-08T06:39:41;55.53;;;22.47;;
4603;SDS011;2314;48.272;11.562;2024-03-08T06:42:08;50.70;;;23.00;;
4603;SDS011;2314;48.272;11.562;2024-03-08T06:44:35;45.57;;;22.57;;
4603;SDS011;2314;48.272;11.562;2024-03-08T06:47:03;47.80;;;22.30;;
4603;SDS011;2314;48.272;11.562;2024-03-08T06:49:31;52.53;;;22.83;;
4603;SDS011;2314;48.272;11.562;2024-03-08T06:51:58;44.50;;;21.73;;
4603;SDS011;2314;48.272;11.562;2024-03-08T06:54:25;49.23;;;21.70;;
4603;SDS011;2314;48.272;11.562;2024-03-08T06:56:53;40.67;;;20.73;;
4603;SDS011;2314;48.272;11.562;2024-03-08T06:59:20;43.87;;;21.50;;
4603;SDS011;2314;48.272;11.562;2024-03-08T07:01:47;48.63;;;23.50;;
4603;SDS011;2314;48.272;11.562;2024-03-08T07:04:14;47.27;;;21.50;;
4603;SDS011;2314;48.272;11.562;2024-03-08T07:06:41;48.10;;;22.07;;
4603;SDS011;2314;48.272;11.562;2024-03-08T07:09:08;44.70;;;21.17;;
4603;SDS011;2314;48.272;11.562;2024-03-08T07:11:36;50.87;;;22.77;;
4603;SDS011;2314;48.272;11.562;2024-03-08T07:14:04;51.33;;;21.80;;
4603;SDS011;2314;48.272;11.562;2024-03-08T07:16:31;45.63;;;21.37;;
4603;SDS011;2314;48.272;11.562;2024-03-08T07:18:59;46.97;;;20.03;;
4603;SDS011;2314;48.272;11.562;2024-03-08T07:21:26;43.30;;;21.17;;
4603;SDS011;2314;48.272;11.562;2024-03-08T07:23:53;43.80;;;20.33;;
4603;SDS011;2314;48.272;11.562;2024-03-08T07:26:34;49.13;;;21.30;;
4603;SDS011;2314;48.272;11.562;2024-03-08T07:29:00;49.53;;;21.57;;
4603;SDS011;2314;48.272;11.562;2024-03-08T07:31:29;38.90;;;18.93;;
4603;SDS011;2314;48.272;11.562;2024-03-08T07:34:09;48.07;;;20.87;;
4603;SDS011;2314;48.272;11.562;2024-03-08T07:36:37;46.67;;;20.30;;
4603;SDS011;2314;48.272;11.562;2024-03-08T07:39:04;35.03;;;18.83;;
4603;SDS011;2314;48.272;11.562;2024-03-08T07:41:36;35.13;;;18.73;;
4603;SDS011;2314;48.272;11.562;2024-03-08T07:44:05;43.93;;;21.37;;
4603;SDS011;2314;48.272;11.562;2024-03-08T07:46:33;42.67;;;20.17;;
4603;SDS011;2314;48.272;11.562;2024-03-08T07:49:01;44.13;;;20.67;;
4603;SDS011;2314;48.272;11.562;2024-03-08T07:51:28;39.27;;;19.50;;
4603;SDS011;2314;48.272;11.562;2024-03-08T07:53:55;43.50;;;20.30;;
4603;SDS011;2314;48.272;11.562;2024-03-08T07:56:22;40.37;;;19.27;;
4603;SDS011;2314;48.272;11.562;2024-03-08T07:58:50;36.87;;;17.40;;
4603;SDS011;2314;48.272;11.562;2024-03-08T08:01:18;36.47;;;19.63;;
4603;SDS011;2314;48.272;11.562;2024-03-08T08:03:46;37.30;;;18.87;;
4603;SDS011;2314;48.272;11.562;2024-03-08T08:06:14;35.77;;;17.90;;
4603;SDS011;2314;48.272;11.562;2024-03-08T08:08:42;35.63;;;18.27;;
4603;SDS011;2314;48.272;11.562;2024-03-08T08:11:09;39.63;;;19.50;;
4603;SDS011;2314;48.272;11.562;2024-03-08T08:13:37;34.87;;;17.57;;
4603;SDS011;2314;48.272;11.562;2024-03-08T08:16:04;43.70;;;20.20;;
4603;SDS011;2314;48.272;11.562;2024-03-08T08:18:32;40.90;;;19.10;;
4603;SDS011;2314;48.272;11.562;2024-03-08T08:21:01;36.17;;;17.57;;
4603;SDS011;2314;48.272;11.562;2024-03-08T08:23:31;41.77;;;18.80;;
4603;SDS011;2314;48.272;11.562;2024-03-08T08:25:58;39.93;;;19.87;;
4603;SDS011;2314;48.272;11.562;2024-03-08T08:28:26;40.97;;;20.40;;
4603;SDS011;2314;48.272;11.562;2024-03-08T08:30:53;36.97;;;18.63;;
4603;SDS011;2314;48.272;11.562;2024-03-08T08:33:20;40.37;;;19.20;;
4603;SDS011;2314;48.272;11.562;2024-03-08T08:35:47;38.93;;;20.47;;
4603;SDS011;2314;48.272;11.562;2024-03-08T08:38:20;33.97;;;18.47;;
4603;SDS011;2314;48.272;11.562;2024-03-08T08:40:48;41.20;;;21.10;;
4603;SDS011;2314;48.272;11.562;2024-03-08T08:43:15;37.23;;;19.87;;
4603;SDS011;2314;48.272;11.562;2024-03-08T08:45:42;38.97;;;20.23;;
4603;SDS011;2314;48.272;11.562;2024-03-08T08:48:12;35.60;;;19.17;;
4603;SDS011;2314;48.272;11.562;2024-03-08T08:50:39;35.73;;;18.57;;
4603;SDS011;2314;48.272;11.562;2024-03-08T08:53:06;38.40;;;21.20;;
4603;SDS011;2314;48.272;11.562;2024-03-08T08:55:35;39.77;;;19.57;;
4603;SDS011;2314;48.272;11.562;2024-03-08T08:58:02;38.47;;;19.27;;
4603;SDS011;2314;48.272;11.562;2024-03-08T09:00:30;40.20;;;20.00;;
4603;SDS011;2314;48.272;11.562;2024-03-08T09:02:57;39.83;;;21.50;;
4603;SDS011;2314;48.272;11.562;2024-03-08T09:05:24;41.17;;;18.77;;
4603;SDS011;2314;48.272;11.562;2024-03-08T09:07:52;39.83;;;20.57;;
4603;SDS011;2314;48.272;11.562;2024-03-08T09:10:22;50.40;;;21.37;;
4603;SDS011;2314;48.272;11.562;2024-03-08T09:12:51;38.70;;;20.30;;
4603;SDS011;2314;48.272;11.562;2024-03-08T09:15:18;39.33;;;18.00;;
4603;SDS011;2314;48.272;11.562;2024-03-08T09:17:45;40.67;;;19.47;;
4603;SDS011;2314;48.272;11.562;2024-03-08T09:20:13;45.90;;;21.70;;
4603;SDS011;2314;48.272;11.562;2024-03-08T09:22:43;36.63;;;18.73;;
4603;SDS011;2314;48.272;11.562;2024-03-08T09:25:12;43.70;;;20.47;;
4603;SDS011;2314;48.272;11.562;2024-03-08T09:27:39;33.40;;;18.80;;
4603;SDS011;2314;48.272;11.562;2024-03-08T09:30:08;39.77;;;21.30;;
4603;SDS011;2314;48.272;11.562;2024-03-08T09:32:38;42.00;;;19.03;;
4603;SDS011;2314;48.272;11.562;2024-03-08T09:35:05;36.97;;;20.97;;
4603;SDS011;2314;48.272;11.562;2024-03-08T09:37:33;36.07;;;18.00;;
4603;SDS011;2314;48.272;11.562;2024-03-08T09:40:00;36.37;;;17.93;;
4603;SDS011;2314;48.272;11.562;2024-03-08T09:42:29;34.40;;;17.60;;
4603;SDS011;2314;48.272;11.562;2024-03-08T09:44:57;33.43;;;17.33;;
4603;SDS011;2314;48.272;11.562;2024-03-08T09:47:26;37.67;;;18.40;;
4603;SDS011;2314;48.272;11.562;2024-03-08T09:49:58;29.70;;;17.10;;
4603;SDS011;2314;48.272;11.562;2024-03-08T09:52:26;28.80;;;17.53;;
4603;SDS011;2314;48.272;11.562;2024-03-08T09:54:55;31.93;;;17.17;;
4603;SDS011;2314;48.272;11.562;2024-03-08T09:57:22;31.30;;;17.27;;
4603;SDS011;2314;48.272;11.562;2024-03-08T09:59:49;31.63;;;17.70;;
4603;SDS011;2314;48.272;11.562;2024-03-08T10:02:16;33.93;;;18.50;;
4603;SDS011;2314;48.272;11.562;2024-03-08T10:04:45;34.17;;;18.63;;
4603;SDS011;2314;48.272;11.562;2024-03-08T10:07:14;32.30;;;17.53;;
4603;SDS011;2314;48.272;11.562;2024-03-08T10:09:41;30.40;;;17.90;;
4603;SDS011;2314;48.272;11.562;2024-03-08T10:12:15;34.10;;;17.50;;
4603;SDS011;2314;48.272;11.562;2024-03-08T10:14:45;35.70;;;18.57;;
4603;SDS011;2314;48.272;11.562;2024-03-08T10:17:12;39.27;;;18.17;;
4603;SDS011;2314;48.272;11.562;2024-03-08T10:19:39;36.83;;;18.40;;
4603;SDS011;2314;48.272;11.562;2024-03-08T10:22:18;31.70;;;18.93;;
4603;SDS011;2314;48.272;11.562;2024-03-08T10:24:45;31.40;;;17.37;;
4603;SDS011;2314;48.272;11.562;2024-03-08T10:27:12;31.57;;;18.47;;
4603;SDS011;2314;48.272;11.562;2024-03-08T10:29:41;30.50;;;17.23;;
4603;SDS011;2314;48.272;11.562;2024-03-08T10:32:09;28.53;;;17.60;;
4603;SDS011;2314;48.272;11.562;2024-03-08T10:34:37;30.03;;;17.43;;
4603;SDS011;2314;48.272;11.562;2024-03-08T10:37:06;28.33;;;17.23;;
4603;SDS011;2314;48.272;11.562;2024-03-08T10:39:42;33.37;;;18.27;;
4603;SDS011;2314;48.272;11.562;2024-03-08T10:42:18;31.03;;;17.40;;
4603;SDS011;2314;48.272;11.562;2024-03-08T10:44:57;31.63;;;18.07;;
4603;SDS011;2314;48.272;11.562;2024-03-08T10:47:33;26.80;;;16.30;;
4603;SDS011;2314;48.272;11.562;2024-03-08T10:50:07;27.63;;;16.50;;
4603;SDS011;2314;48.272;11.562;2024-03-08T10:52:47;29.43;;;17.20;;
4603;SDS011;2314;48.272;11.562;2024-03-08T10:55:16;33.30;;;16.63;;
4603;SDS011;2314;48.272;11.562;2024-03-08T10:57:45;34.13;;;16.60;;
4603;SDS011;2314;48.272;11.562;2024-03-08T11:00:13;31.00;;;16.60;;
4603;SDS011;2314;48.272;11.562;2024-03-08T11:02:43;28.03;;;15.17;;
4603;SDS011;2314;48.272;11.562;2024-03-08T11:05:10;24.77;;;15.13;;
4603;SDS011;2314;48.272;11.562;2024-03-08T11:07:42;29.80;;;16.50;;
4603;SDS011;2314;48.272;11.562;2024-03-08T11:10:19;29.90;;;15.37;;
4603;SDS011;2314;48.272;11.562;2024-03-08T11:12:46;28.60;;;16.27;;
4603;SDS011;2314;48.272;11.562;2024-03-08T11:15:14;27.53;;;16.00;;
4603;SDS011;2314;48.272;11.562;2024-03-08T11:17:47;26.50;;;15.80;;
4603;SDS011;2314;48.272;11.562;2024-03-08T11:20:15;30.30;;;14.60;;
4603;SDS011;2314;48.272;11.562;2024-03-08T11:22:49;27.10;;;14.37;;
4603;SDS011;2314;48.272;11.562;2024-03-08T11:25:31;24.30;;;14.77;;
4603;SDS011;2314;48.272;11.562;2024-03-08T11:28:08;28.10;;;15.47;;
4603;SDS011;2314;48.272;11.562;2024-03-08T11:30:43;28.03;;;15.70;;
4603;SDS011;2314;48.272;11.562;2024-03-08T11:33:12;29.83;;;15.47;;
4603;SDS011;2314;48.272;11.562;2024-03-08T11:35:39;25.23;;;14.77;;
4603;SDS011;2314;48.272;11.562;2024-03-08T11:38:10;28.60;;;15.70;;
4603;SDS011;2314;48.272;11.562;2024-03-08T11:40:40;27.53;;;15.43;;
4603;SDS011;2314;48.272;11.562;2024-03-08T11:43:08;28.30;;;14.60;;
4603;SDS011;2314;48.272;11.562;2024-03-08T11:45:35;29.30;;;15.60;;
4603;SDS011;2314;48.272;11.562;2024-03-08T11:48:02;34.43;;;14.27;;
4603;SDS011;2314;48.272;11.562;2024-03-08T11:50:31;27.93;;;15.40;;
4603;SDS011;2314;48.272;11.562;2024-03-08T11:53:02;27.03;;;14.90;;
4603;SDS011;2314;48.272;11.562;2024-03-08T11:55:30;27.00;;;14.50;;
4603;SDS011;2314;48.272;11.562;2024-03-08T11:58:02;26.00;;;14.33;;
4603;SDS011;2314;48.272;11.562;2024-03-08T12:00:33;25.37;;;13.60;;
4603;SDS011;2314;48.272;11.562;2024-03-08T12:03:03;25.63;;;13.70;;
4603;SDS011;2314;48.272;11.562;2024-03-08T12:05:32;26.17;;;14.73;;
4603;SDS011;2314;48.272;11.562;2024-03-08T12:07:59;24.50;;;14.00;;
4603;SDS011;2314;48.272;11.562;2024-03-08T12:10:28;20.93;;;12.67;;
4603;SDS011;2314;48.272;11.562;2024-03-08T12:12:56;32.60;;;16.90;;
4603;SDS011;2314;48.272;11.562;2024-03-08T12:15:27;29.00;;;14.43;;
4603;SDS011;2314;48.272;11.562;2024-03-08T12:17:57;22.10;;;13.17;;
4603;SDS011;2314;48.272;11.562;2024-03-08T12:20:26;24.63;;;13.80;;
4603;SDS011;2314;48.272;11.562;2024-03-08T12:22:56;23.80;;;12.60;;
4603;SDS011;2314;48.272;11.562;2024-03-08T12:25:26;21.27;;;12.50;;
4603;SDS011;2314;48.272;11.562;2024-03-08T12:27:56;28.23;;;13.87;;
4603;SDS011;2314;48.272;11.562;2024-03-08T12:30:34;21.57;;;12.70;;
4603;SDS011;2314;48.272;11.562;2024-03-08T12:33:01;22.37;;;13.60;;
4603;SDS011;2314;48.272;11.562;2024-03-08T12:35:28;26.90;;;13.17;;
4603;SDS011;2314;48.272;11.562;2024-03-08T12:37:58;21.60;;;12.03;;
4603;SDS011;2314;48.272;11.562;2024-03-08T12:40:28;26.30;;;13.70;;
4603;SDS011;2314;48.272;11.562;2024-03-08T12:42:56;22.47;;;12.37;;
4603;SDS011;2314;48.272;11.562;2024-03-08T12:45:24;19.83;;;11.30;;
4603;SDS011;2314;48.272;11.562;2024-03-08T12:47:53;18.13;;;11.63;;
4603;SDS011;2314;48.272;11.562;2024-03-08T12:50:21;23.97;;;11.83;;
4603;SDS011;2314;48.272;11.562;2024-03-08T12:52:50;22.17;;;12.27;;
4603;SDS011;2314;48.272;11.562;2024-03-08T12:55:17;26.53;;;12.87;;
4603;SDS011;2314;48.272;11.562;2024-03-08T12:57:45;19.93;;;11.57;;
4603;SDS011;2314;48.272;11.562;2024-03-08T13:00:14;22.40;;;12.00;;
4603;SDS011;2314;48.272;11.562;2024-03-08T13:02:45;20.97;;;11.57;;
4603;SDS011;2314;48.272;11.562;2024-03-08T13:05:13;21.13;;;12.03;;
4603;SDS011;2314;48.272;11.562;2024-03-08T13:07:41;19.27;;;11.60;;
4603;SDS011;2314;48.272;11.562;2024-03-08T13:10:11;15.50;;;9.03;;
4603;SDS011;2314;48.272;11.562;2024-03-08T13:12:40;18.97;;;9.63;;
4603;SDS011;2314;48.272;11.562;2024-03-08T13:15:07;17.90;;;9.73;;
4603;SDS011;2314;48.272;11.562;2024-03-08T13:17:36;13.73;;;8.47;;
4603;SDS011;2314;48.272;11.562;2024-03-08T13:20:05;16.40;;;8.37;;
4603;SDS011;2314;48.272;11.562;2024-03-08T13:22:42;14.40;;;9.03;;
4603;SDS011;2314;48.272;11.562;2024-03-08T13:25:09;20.07;;;9.53;;
4603;SDS011;2314;48.272;11.562;2024-03-08T13:27:38;18.50;;;9.60;;
4603;SDS011;2314;48.272;11.562;2024-03-08T13:30:06;17.17;;;11.20;;
4603;SDS011;2314;48.272;11.562;2024-03-08T13:32:37;14.93;;;9.67;;
4603;SDS011;2314;48.272;11.562;2024-03-08T13:35:06;22.00;;;11.23;;
4603;SDS011;2314;48.272;11.562;2024-03-08T13:37:37;21.53;;;10.30;;
4603;SDS011;2314;48.272;11.562;2024-03-08T13:40:07;16.30;;;9.20;;
4603;SDS011;2314;48.272;11.562;2024-03-08T13:42:38;15.43;;;9.33;;
4603;SDS011;2314;48.272;11.562;2024-03-08T13:45:06;17.90;;;8.57;;
4603;SDS011;2314;48.272;11.562;2024-03-08T13:47:36;18.00;;;9.77;;
4603;SDS011;2314;48.272;11.562;2024-03-08T13:50:04;16.13;;;8.97;;
4603;SDS011;2314;48.272;11.562;2024-03-08T13:52:37;14.13;;;8.40;;
4603;SDS011;2314;48.272;11.562;2024-03-08T13:55:04;15.80;;;9.33;;
4603;SDS011;2314;48.272;11.562;2024-03-08T13:57:34;15.07;;;9.20;;
4603;SDS011;2314;48.272;11.562;2024-03-08T14:00:01;17.67;;;10.40;;
4603;SDS011;2314;48.272;11.562;2024-03-08T14:02:32;16.33;;;9.50;;
4603;SDS011;2314;48.272;11.562;2024-03-08T14:04:59;16.50;;;9.30;;
4603;SDS011;2314;48.272;11.562;2024-03-08T14:07:27;16.27;;;9.93;;
4603;SDS011;2314;48.272;11.562;2024-03-08T14:09:54;18.60;;;10.50;;
4603;SDS011;2314;48.272;11.562;2024-03-08T14:12:23;20.73;;;9.97;;
4603;SDS011;2314;48.272;11.562;2024-03-08T14:14:51;13.67;;;8.73;;
4603;SDS011;2314;48.272;11.562;2024-03-08T14:17:18;14.43;;;9.60;;
4603;SDS011;2314;48.272;11.562;2024-03-08T14:19:45;16.90;;;9.10;;
4603;SDS011;2314;48.272;11.562;2024-03-08T14:22:12;15.90;;;8.63;;
4603;SDS011;2314;48.272;11.562;2024-03-08T14:24:40;16.30;;;9.57;;
4603;SDS011;2314;48.272;11.562;2024-03-08T14:27:08;14.90;;;9.40;;
4603;SDS011;2314;48.272;11.562;2024-03-08T14:29:38;16.57;;;9.50;;
4603;SDS011;2314;48.272;11.562;2024-03-08T14:32:05;22.33;;;10.57;;
4603;SDS011;2314;48.272;11.562;2024-03-08T14:34:33;18.70;;;9.27;;
4603;SDS011;2314;48.272;11.562;2024-03-08T14:37:00;17.50;;;9.80;;
4603;SDS011;2314;48.272;11.562;2024-03-08T14:39:30;16.23;;;9.70;;
4603;SDS011;2314;48.272;11.562;2024-03-08T14:41:58;18.00;;;9.93;;
4603;SDS011;2314;48.272;11.562;2024-03-08T14:44:27;14.30;;;9.00;;
4603;SDS011;2314;48.272;11.562;2024-03-08T14:46:56;16.10;;;9.03;;